createdAt,value
2022-07-31T00:00:25.511Z,25.02
2022-07-31T00:02:52.595Z,24.85
2022-07-31T00:05:19.518Z,24.91
2022-07-31T00:07:46.565Z,24.99
2022-07-31T00:10:13.531Z,24.95
2022-07-31T00:12:40.454Z,24.87
2022-07-31T00:15:15.420Z,24.85
2022-07-31T00:17:44.924Z,24.89
2022-07-31T00:20:16.991Z,24.83
2022-07-31T00:22:46.954Z,24.85
2022-07-31T00:25:15.502Z,24.81
2022-07-31T00:27:42.808Z,24.80
2022-07-31T00:30:12.875Z,24.83
2022-07-31T00:32:40.771Z,24.79
2022-07-31T00:35:08.677Z,24.82
2022-07-31T00:37:37.939Z,24.85
2022-07-31T00:40:08.361Z,24.83
2022-07-31T00:42:35.249Z,24.87
2022-07-31T00:45:02.554Z,24.82
2022-07-31T00:47:29.914Z,24.75
2022-07-31T00:49:56.825Z,24.78
2022-07-31T00:52:23.864Z,24.69
2022-07-31T00:54:50.823Z,24.45
2022-07-31T00:57:17.758Z,24.48
2022-07-31T00:59:44.767Z,24.47
2022-07-31T01:02:11.853Z,24.31
2022-07-31T01:04:41.641Z,24.30
2022-07-31T01:07:11.438Z,24.29
2022-07-31T01:09:38.435Z,24.15
2022-07-31T01:12:33.694Z,24.07
2022-07-31T01:15:05.681Z,24.08
2022-07-31T01:17:33.053Z,23.99
2022-07-31T01:20:00.119Z,23.98
2022-07-31T01:22:41.862Z,23.96
2022-07-31T01:25:51.840Z,23.91
2022-07-31T01:29:03.332Z,23.81
2022-07-31T01:31:37.646Z,23.72
2022-07-31T01:34:15.574Z,23.67
2022-07-31T01:36:49.741Z,23.62
2022-07-31T01:39:17.962Z,23.53
2022-07-31T01:41:48.522Z,23.47
2022-07-31T01:44:18.268Z,23.39
2022-07-31T01:46:46.697Z,23.32
2022-07-31T01:49:14.785Z,23.20
2022-07-31T01:51:45.134Z,23.26
2022-07-31T01:54:12.991Z,23.33
2022-07-31T01:56:41.231Z,23.33
2022-07-31T01:59:20.497Z,23.27
2022-07-31T02:01:51.536Z,23.29
2022-07-31T02:04:20.811Z,23.27
2022-07-31T02:06:49.722Z,23.27
2022-07-31T02:09:19.684Z,23.23
2022-07-31T02:11:54.412Z,23.26
2022-07-31T02:14:22.931Z,23.25
2022-07-31T02:16:50.359Z,23.20
2022-07-31T02:19:18.349Z,23.06
2022-07-31T02:21:45.483Z,22.99
2022-07-31T02:24:12.542Z,22.98
2022-07-31T02:26:41.038Z,22.77
2022-07-31T02:29:19.596Z,22.83
2022-07-31T02:32:01.773Z,22.81
2022-07-31T02:34:32.007Z,22.79
2022-07-31T02:37:01.731Z,22.84
2022-07-31T02:39:31.344Z,22.75
2022-07-31T02:42:01.437Z,22.73
2022-07-31T02:44:31.691Z,22.80
2022-07-31T02:47:02.341Z,22.82
2022-07-31T02:49:31.174Z,22.89
2022-07-31T02:51:58.624Z,22.91
2022-07-31T02:54:26.429Z,22.92
2022-07-31T02:56:54.039Z,22.98
2022-07-31T02:59:22.286Z,22.90
2022-07-31T03:01:49.211Z,22.89
2022-07-31T03:04:16.324Z,22.89
2022-07-31T03:06:43.442Z,22.81
2022-07-31T03:09:10.325Z,22.81
2022-07-31T03:11:37.294Z,22.80
2022-07-31T03:14:05.941Z,22.77
2022-07-31T03:16:34.558Z,22.73
2022-07-31T03:19:03.451Z,22.65
2022-07-31T03:21:31.814Z,22.64
2022-07-31T03:24:00.581Z,22.56
2022-07-31T03:26:30.423Z,22.58
2022-07-31T03:29:00.978Z,22.57
2022-07-31T03:31:27.958Z,22.62
2022-07-31T03:33:55.036Z,22.66
2022-07-31T03:36:22.437Z,22.63
2022-07-31T03:38:50.778Z,22.68
2022-07-31T03:41:17.756Z,22.61
2022-07-31T03:43:48.135Z,22.57
2022-07-31T03:46:22.033Z,22.59
2022-07-31T03:48:52.125Z,22.58
2022-07-31T03:51:19.774Z,22.61
2022-07-31T03:53:48.160Z,22.64
2022-07-31T03:56:17.778Z,22.60
2022-07-31T03:58:48.033Z,22.62
2022-07-31T04:01:21.122Z,22.69
2022-07-31T04:03:48.856Z,22.74
2022-07-31T04:06:15.769Z,22.82
2022-07-31T04:08:42.638Z,22.82
2022-07-31T04:11:09.678Z,22.74
2022-07-31T04:13:37.762Z,22.62
2022-07-31T04:16:06.725Z,22.58
2022-07-31T04:18:34.381Z,22.61
2022-07-31T04:21:01.294Z,22.57
2022-07-31T04:23:32.695Z,22.38
2022-07-31T04:25:59.814Z,22.25
2022-07-31T04:28:26.802Z,22.26
2022-07-31T04:30:53.770Z,22.22
2022-07-31T04:33:21.046Z,22.23
2022-07-31T04:35:48.051Z,22.10
2022-07-31T04:38:16.787Z,22.05
2022-07-31T04:40:43.857Z,22.21
2022-07-31T04:43:11.000Z,22.22
2022-07-31T04:45:37.893Z,22.30
2022-07-31T04:48:05.656Z,22.29
2022-07-31T04:50:32.530Z,22.37
2022-07-31T04:52:59.533Z,22.46
2022-07-31T04:55:26.400Z,22.53
2022-07-31T04:57:53.368Z,22.58
2022-07-31T05:00:20.485Z,22.54
2022-07-31T05:02:47.461Z,22.66
2022-07-31T05:05:14.472Z,22.73
2022-07-31T05:07:41.366Z,22.88
2022-07-31T05:10:08.910Z,22.80
2022-07-31T05:12:35.994Z,22.68
2022-07-31T05:15:03.040Z,22.46
2022-07-31T05:17:29.910Z,22.33
2022-07-31T05:19:56.823Z,22.49
2022-07-31T05:22:23.749Z,22.38
2022-07-31T05:24:50.684Z,22.57
2022-07-31T05:27:17.700Z,22.74
2022-07-31T05:29:44.643Z,22.68
2022-07-31T05:32:11.930Z,22.68
2022-07-31T05:34:39.432Z,22.67
2022-07-31T05:37:06.433Z,22.70
2022-07-31T05:39:33.448Z,22.94
2022-07-31T05:42:00.386Z,23.05
2022-07-31T05:44:27.391Z,23.14
2022-07-31T05:49:20.441Z,23.13
2022-07-31T05:51:47.701Z,23.06
2022-07-31T05:54:15.088Z,23.10
2022-07-31T05:56:42.073Z,23.02
2022-07-31T05:59:09.732Z,22.78
2022-07-31T06:01:36.958Z,22.75
2022-07-31T06:04:04.023Z,22.96
2022-07-31T06:06:31.026Z,22.73
2022-07-31T06:09:03.587Z,22.86
2022-07-31T06:11:31.829Z,22.88
2022-07-31T06:13:58.748Z,23.19
2022-07-31T06:16:25.650Z,23.07
2022-07-31T06:18:52.519Z,23.10
2022-07-31T06:23:45.474Z,23.50
2022-07-31T06:26:12.455Z,23.73
2022-07-31T06:28:47.671Z,23.88
2022-07-31T06:31:21.464Z,24.17
2022-07-31T06:33:50.124Z,24.03
2022-07-31T06:36:18.982Z,24.07
2022-07-31T06:38:46.592Z,24.22
2022-07-31T06:41:32.828Z,24.43
2022-07-31T06:43:59.791Z,24.79
2022-07-31T06:46:26.725Z,24.93
2022-07-31T06:48:53.820Z,25.13
2022-07-31T06:51:30.743Z,25.79
2022-07-31T06:53:59.517Z,26.40
2022-07-31T06:56:26.559Z,26.82
2022-07-31T06:58:53.479Z,27.09
2022-07-31T07:01:20.541Z,27.08
2022-07-31T07:03:47.899Z,26.74
2022-07-31T07:06:15.627Z,27.16
2022-07-31T07:08:42.746Z,27.13
2022-07-31T07:11:12.269Z,27.41
2022-07-31T07:13:46.004Z,27.86
2022-07-31T07:16:15.145Z,27.89
2022-07-31T07:18:43.149Z,28.63
2022-07-31T07:21:11.189Z,28.88
2022-07-31T07:23:38.316Z,30.28
2022-07-31T07:26:05.964Z,33.30
2022-07-31T07:28:33.934Z,35.97
2022-07-31T07:31:01.720Z,37.39
2022-07-31T07:33:40.879Z,37.58
2022-07-31T07:36:22.664Z,39.50
2022-07-31T07:38:55.743Z,40.16
2022-07-31T07:41:25.098Z,41.77
2022-07-31T07:43:53.007Z,41.34
2022-07-31T07:46:24.997Z,40.47
2022-07-31T07:48:52.712Z,42.14
2022-07-31T07:51:20.791Z,42.85
2022-07-31T07:53:47.924Z,43.26
2022-07-31T07:56:14.954Z,41.55
2022-07-31T07:58:42.034Z,43.27
2022-07-31T08:01:09.229Z,42.39
2022-07-31T08:03:48.521Z,42.17
2022-07-31T08:06:23.249Z,41.96
2022-07-31T08:08:50.220Z,42.43
2022-07-31T08:11:18.043Z,43.05
2022-07-31T08:13:50.606Z,41.46
2022-07-31T08:16:20.416Z,39.16
2022-07-31T08:18:48.860Z,38.08
2022-07-31T08:21:16.162Z,37.28
2022-07-31T08:23:43.279Z,37.88
2022-07-31T08:26:10.237Z,39.29
2022-07-31T08:28:38.569Z,39.60
2022-07-31T08:31:05.900Z,39.58
2022-07-31T08:33:35.902Z,38.94
2022-07-31T08:36:04.357Z,37.09
2022-07-31T08:38:31.223Z,35.71
2022-07-31T08:40:58.252Z,33.33
2022-07-31T08:44:02.369Z,33.11
2022-07-31T08:46:13.356Z,31.69
2022-07-31T08:48:42.655Z,31.55
2022-07-31T08:51:13.695Z,31.47
2022-07-31T08:53:42.873Z,31.58
2022-07-31T08:56:10.684Z,30.97
2022-07-31T08:58:39.804Z,30.55
2022-07-31T09:01:09.055Z,30.45
2022-07-31T09:03:36.330Z,30.33
2022-07-31T09:06:05.243Z,29.80
2022-07-31T09:08:36.995Z,30.56
2022-07-31T09:11:10.200Z,32.11
2022-07-31T09:13:38.225Z,35.02
2022-07-31T09:16:06.074Z,37.11
2022-07-31T09:18:33.668Z,37.03
2022-07-31T09:21:06.687Z,35.10
2022-07-31T09:23:33.691Z,34.44
2022-07-31T09:26:05.755Z,33.71
2022-07-31T09:28:35.676Z,34.05
2022-07-31T09:31:04.363Z,35.28
2022-07-31T09:33:32.619Z,35.79
2022-07-31T09:36:00.348Z,34.96
2022-07-31T09:38:37.682Z,33.95
2022-07-31T09:41:55.987Z,33.21
2022-07-31T09:44:08.522Z,33.17
2022-07-31T09:46:46.798Z,34.20
2022-07-31T09:49:14.931Z,34.14
2022-07-31T09:51:45.567Z,34.33
2022-07-31T09:54:27.333Z,33.85
2022-07-31T09:56:54.569Z,33.34
2022-07-31T09:59:21.503Z,33.35
2022-07-31T10:01:49.687Z,35.90
2022-07-31T10:04:21.894Z,36.28
2022-07-31T10:06:51.445Z,35.93
2022-07-31T10:09:21.549Z,34.91
2022-07-31T10:11:50.702Z,34.28
2022-07-31T10:14:31.626Z,33.01
2022-07-31T10:17:01.312Z,32.46
2022-07-31T10:19:37.465Z,31.52
2022-07-31T10:22:05.664Z,31.55
2022-07-31T10:24:38.892Z,32.13
2022-07-31T10:27:09.097Z,32.19
2022-07-31T10:29:39.258Z,32.33
2022-07-31T10:32:08.389Z,32.70
2022-07-31T10:34:35.983Z,32.94
2022-07-31T10:37:17.328Z,33.81
2022-07-31T10:40:24.793Z,35.05
2022-07-31T10:43:10.068Z,35.03
2022-07-31T10:45:52.173Z,34.35
2022-07-31T10:48:20.289Z,33.65
2022-07-31T10:50:48.596Z,34.14
2022-07-31T10:53:19.590Z,34.33
2022-07-31T10:55:46.726Z,34.31
2022-07-31T10:58:21.376Z,33.98
2022-07-31T11:00:51.742Z,34.51
2022-07-31T11:03:22.068Z,34.98
2022-07-31T11:06:01.051Z,34.86
2022-07-31T11:08:46.086Z,34.93
2022-07-31T11:11:14.491Z,34.44
2022-07-31T11:13:51.355Z,33.94
2022-07-31T11:16:19.629Z,33.41
2022-07-31T11:19:15.513Z,33.56
2022-07-31T11:21:42.964Z,33.75
2022-07-31T11:24:19.703Z,33.70
2022-07-31T11:26:53.392Z,33.50
2022-07-31T11:30:01.673Z,33.41
2022-07-31T11:32:30.327Z,33.20
2022-07-31T11:34:57.856Z,33.14
2022-07-31T11:37:46.163Z,32.85
2022-07-31T11:40:20.414Z,32.92
2022-07-31T11:43:04.637Z,32.92
2022-07-31T11:45:48.111Z,32.97
2022-07-31T11:48:19.144Z,32.80
2022-07-31T11:50:49.183Z,32.19
2022-07-31T11:53:17.291Z,32.49
2022-07-31T11:55:47.896Z,32.82
2022-07-31T11:58:17.113Z,32.99
2022-07-31T12:00:55.616Z,33.15
2022-07-31T12:03:35.238Z,33.16
2022-07-31T12:06:03.586Z,32.57
2022-07-31T12:08:31.492Z,32.78
2022-07-31T12:11:01.853Z,32.79
2022-07-31T12:13:29.700Z,32.88
2022-07-31T12:16:07.638Z,33.21
2022-07-31T12:18:58.592Z,33.44
2022-07-31T12:21:38.227Z,33.65
2022-07-31T12:24:13.137Z,33.51
2022-07-31T12:26:49.075Z,33.49
2022-07-31T12:29:15.951Z,33.69
2022-07-31T12:31:54.162Z,33.68
2022-07-31T12:34:41.916Z,33.96
2022-07-31T12:37:19.048Z,34.08
2022-07-31T12:39:59.726Z,34.21
2022-07-31T12:42:33.178Z,34.11
2022-07-31T12:45:19.353Z,33.96
2022-07-31T12:47:51.919Z,33.88
2022-07-31T12:50:21.426Z,33.72
2022-07-31T12:52:48.395Z,33.64
2022-07-31T12:55:17.408Z,33.50
2022-07-31T12:57:50.738Z,33.40
2022-07-31T13:00:23.768Z,33.47
2022-07-31T13:02:56.582Z,33.49
2022-07-31T13:05:24.849Z,33.30
2022-07-31T13:07:52.236Z,33.15
2022-07-31T13:10:24.241Z,33.16
2022-07-31T13:12:52.892Z,33.12
2022-07-31T13:15:29.876Z,33.13
2022-07-31T13:18:05.075Z,33.24
2022-07-31T13:20:32.645Z,33.21
2022-07-31T13:22:59.755Z,33.17
2022-07-31T13:25:30.345Z,33.03
2022-07-31T13:27:58.442Z,33.04
2022-07-31T13:30:25.625Z,32.92
2022-07-31T13:32:52.644Z,32.85
2022-07-31T13:35:27.650Z,33.06
2022-07-31T13:37:55.986Z,33.28
2022-07-31T13:40:42.981Z,33.33
2022-07-31T13:43:10.023Z,33.46
2022-07-31T13:45:37.165Z,33.47
2022-07-31T13:48:08.875Z,33.40
2022-07-31T13:50:40.207Z,33.35
2022-07-31T13:53:07.820Z,33.28
2022-07-31T13:55:34.890Z,33.16
2022-07-31T13:58:01.897Z,33.18
2022-07-31T14:00:29.946Z,33.19
2022-07-31T14:02:57.844Z,33.22
2022-07-31T14:05:26.665Z,33.24
2022-07-31T14:08:30.002Z,33.19
2022-07-31T14:10:50.132Z,33.36
2022-07-31T14:13:19.413Z,33.45
2022-07-31T14:15:47.051Z,33.70
2022-07-31T14:18:14.245Z,33.72
2022-07-31T14:20:41.184Z,33.47
2022-07-31T14:23:08.247Z,33.26
2022-07-31T14:25:39.923Z,32.97
2022-07-31T14:28:08.122Z,32.97
2022-07-31T14:30:37.039Z,33.11
2022-07-31T14:33:04.996Z,33.30
2022-07-31T14:35:33.462Z,33.38
2022-07-31T14:38:03.923Z,33.44
2022-07-31T14:40:31.470Z,33.46
2022-07-31T14:42:59.035Z,33.46
2022-07-31T14:45:26.113Z,33.42
2022-07-31T14:47:55.003Z,33.23
2022-07-31T14:50:23.254Z,33.24
2022-07-31T14:52:50.414Z,33.13
2022-07-31T14:55:17.372Z,33.07
2022-07-31T14:57:44.316Z,33.13
2022-07-31T15:00:15.300Z,32.91
2022-07-31T15:02:44.420Z,33.01
2022-07-31T15:06:39.798Z,33.03
2022-07-31T15:07:59.776Z,33.07
2022-07-31T15:10:26.734Z,33.14
2022-07-31T15:12:53.666Z,33.13
2022-07-31T15:15:20.778Z,33.07
2022-07-31T15:17:47.698Z,33.04
2022-07-31T15:20:14.630Z,32.99
2022-07-31T15:22:41.553Z,32.81
2022-07-31T15:25:10.094Z,32.82
2022-07-31T15:27:37.026Z,33.04
2022-07-31T15:30:07.790Z,33.09
2022-07-31T15:32:37.154Z,33.08
2022-07-31T15:35:07.418Z,32.93
2022-07-31T15:37:36.939Z,32.84
2022-07-31T15:40:07.188Z,32.72
2022-07-31T15:42:38.231Z,32.59
2022-07-31T15:45:17.128Z,32.53
2022-07-31T15:47:45.094Z,32.47
2022-07-31T15:50:15.607Z,32.28
2022-07-31T15:52:42.871Z,32.40
2022-07-31T15:55:10.267Z,32.50
2022-07-31T15:57:37.451Z,32.43
2022-07-31T16:00:09.509Z,32.58
2022-07-31T16:02:37.387Z,32.60
2022-07-31T16:05:12.130Z,32.61
2022-07-31T16:08:29.943Z,32.62
2022-07-31T16:10:34.560Z,32.65
2022-07-31T16:13:01.622Z,32.72
2022-07-31T16:15:29.109Z,32.56
2022-07-31T16:17:56.097Z,32.53
2022-07-31T16:20:26.255Z,32.43
2022-07-31T16:23:01.159Z,32.39
2022-07-31T16:25:31.991Z,32.25
2022-07-31T16:28:03.102Z,32.31
2022-07-31T16:30:30.445Z,32.28
2022-07-31T16:32:57.336Z,32.26
2022-07-31T16:35:26.193Z,32.28
2022-07-31T16:37:54.200Z,32.22
2022-07-31T16:40:30.490Z,32.08
2022-07-31T16:43:50.706Z,32.20
2022-07-31T16:45:54.664Z,32.25
2022-07-31T16:48:21.761Z,32.14
2022-07-31T16:50:53.368Z,31.96
2022-07-31T16:54:10.648Z,32.08
2022-07-31T16:56:11.043Z,32.16
2022-07-31T16:58:37.899Z,32.09
2022-07-31T17:01:58.006Z,31.97
2022-07-31T17:04:01.167Z,31.84
2022-07-31T17:06:37.850Z,31.89
2022-07-31T17:09:15.200Z,31.83
2022-07-31T17:11:44.798Z,31.72
2022-07-31T17:14:11.692Z,31.88
2022-07-31T17:16:39.307Z,31.89
2022-07-31T17:19:08.153Z,31.86
2022-07-31T17:21:35.245Z,31.93
2022-07-31T17:24:10.706Z,31.84
2022-07-31T17:26:43.776Z,31.86
2022-07-31T17:29:11.575Z,31.86
2022-07-31T17:31:38.622Z,31.79
2022-07-31T17:34:09.229Z,31.65
2022-07-31T17:36:36.973Z,31.58
2022-07-31T17:39:05.401Z,31.53
2022-07-31T17:41:32.327Z,31.59
2022-07-31T17:44:02.859Z,31.55
2022-07-31T17:46:36.253Z,31.43
2022-07-31T17:49:13.694Z,31.29
2022-07-31T17:51:57.863Z,31.29
2022-07-31T17:54:31.635Z,31.24
2022-07-31T17:56:59.723Z,31.18
2022-07-31T17:59:28.064Z,31.07
2022-07-31T18:01:59.666Z,30.96
2022-07-31T18:04:35.096Z,30.89
2022-07-31T18:07:04.306Z,30.91
2022-07-31T18:09:31.444Z,30.88
2022-07-31T18:11:58.616Z,30.77
2022-07-31T18:14:26.065Z,30.77
2022-07-31T18:16:53.680Z,30.77
2022-07-31T18:19:21.935Z,30.80
2022-07-31T18:21:50.309Z,30.72
2022-07-31T18:24:17.290Z,30.84
2022-07-31T18:26:44.216Z,30.76
2022-07-31T18:29:11.400Z,30.59
2022-07-31T18:31:38.471Z,30.53
2022-07-31T18:34:06.532Z,30.54
2022-07-31T18:36:34.710Z,30.42
2022-07-31T18:39:02.343Z,30.40
2022-07-31T18:41:29.730Z,30.36
2022-07-31T18:43:57.073Z,30.37
2022-07-31T18:46:24.847Z,30.24
2022-07-31T18:48:56.634Z,30.27
2022-07-31T18:51:25.178Z,30.24
2022-07-31T18:53:54.464Z,30.09
2022-07-31T18:56:25.941Z,30.06
2022-07-31T18:58:54.229Z,29.95
2022-07-31T19:01:22.121Z,29.87
2022-07-31T19:03:50.143Z,29.83
2022-07-31T19:06:17.758Z,29.65
2022-07-31T19:08:44.807Z,29.65
2022-07-31T19:11:12.445Z,29.57
2022-07-31T19:13:39.547Z,29.57
2022-07-31T19:16:06.806Z,29.49
2022-07-31T19:18:34.102Z,29.42
2022-07-31T19:21:21.261Z,29.33
2022-07-31T19:23:49.667Z,29.33
2022-07-31T19:26:16.780Z,29.25
2022-07-31T19:28:43.957Z,29.22
2022-07-31T19:31:13.210Z,29.20
2022-07-31T19:33:40.748Z,29.33
2022-07-31T19:36:08.318Z,29.23
2022-07-31T19:38:39.598Z,29.13
2022-07-31T19:41:06.523Z,29.11
2022-07-31T19:43:33.513Z,29.03
2022-07-31T19:46:11.360Z,29.02
2022-07-31T19:48:44.921Z,28.98
2022-07-31T19:51:13.864Z,28.87
2022-07-31T19:53:41.695Z,28.83
2022-07-31T19:56:11.318Z,28.79
2022-07-31T19:58:41.680Z,28.78
2022-07-31T20:01:11.601Z,28.72
2022-07-31T20:03:38.793Z,28.65
2022-07-31T20:06:06.628Z,28.66
2022-07-31T20:08:33.932Z,28.60
2022-07-31T20:11:04.191Z,28.58
2022-07-31T20:13:37.605Z,28.55
2022-07-31T20:16:05.009Z,28.53
2022-07-31T20:18:32.080Z,28.45
2022-07-31T20:21:08.381Z,28.48
2022-07-31T20:23:38.985Z,28.43
2022-07-31T20:26:09.176Z,28.38
2022-07-31T20:28:40.026Z,28.39
2022-07-31T20:31:15.029Z,28.33
2022-07-31T20:33:46.349Z,28.22
2022-07-31T20:36:24.148Z,28.20
2022-07-31T20:38:51.051Z,28.09
2022-07-31T20:41:18.076Z,28.07
2022-07-31T20:43:44.978Z,28.06
2022-07-31T20:46:11.891Z,27.98
2022-07-31T20:48:39.342Z,27.88
2022-07-31T20:51:09.026Z,27.84
2022-07-31T20:53:36.601Z,27.78
2022-07-31T20:56:03.574Z,27.71
2022-07-31T20:58:30.632Z,27.71
2022-07-31T21:00:57.724Z,27.69
2022-07-31T21:03:24.881Z,27.61
2022-07-31T21:05:51.826Z,27.59
2022-07-31T21:08:18.754Z,27.52
2022-07-31T21:10:46.093Z,27.36
2022-07-31T21:13:13.062Z,27.25
2022-07-31T21:15:42.340Z,27.26
2022-07-31T21:18:15.422Z,27.26
2022-07-31T21:20:51.588Z,27.27
2022-07-31T21:23:27.309Z,27.07
2022-07-31T21:25:58.682Z,27.11
2022-07-31T21:28:27.824Z,26.88
2022-07-31T21:30:56.181Z,26.75
2022-07-31T21:33:26.116Z,26.75
2022-07-31T21:35:56.742Z,26.77
2022-07-31T21:38:24.373Z,26.80
2022-07-31T21:40:53.811Z,26.78
2022-07-31T21:43:22.248Z,26.65
2022-07-31T21:45:57.551Z,26.69
2022-07-31T21:48:30.960Z,26.71
2022-07-31T21:50:59.705Z,26.77
2022-07-31T21:53:26.660Z,26.76
2022-07-31T21:55:53.639Z,26.75
2022-07-31T21:58:20.614Z,26.73
2022-07-31T22:00:47.668Z,26.75
2022-07-31T22:03:14.792Z,26.73
2022-07-31T22:06:00.244Z,26.68
2022-07-31T22:08:27.399Z,26.62
2022-07-31T22:10:54.507Z,26.57
2022-07-31T22:13:21.748Z,26.59
2022-07-31T22:15:58.905Z,26.67
2022-07-31T22:18:33.032Z,26.72
2022-07-31T22:21:02.868Z,26.68
2022-07-31T22:23:30.652Z,26.69
2022-07-31T22:25:58.047Z,26.69
2022-07-31T22:28:26.889Z,26.65
2022-07-31T22:30:55.509Z,26.53
2022-07-31T22:33:23.340Z,26.54
2022-07-31T22:35:58.906Z,26.67
2022-07-31T22:38:30.172Z,26.71
2022-07-31T22:40:59.295Z,26.63
2022-07-31T22:43:47.429Z,26.61
2022-07-31T22:46:15.347Z,26.65
2022-07-31T22:48:45.236Z,26.59
2022-07-31T22:51:14.700Z,26.74
2022-07-31T22:53:45.538Z,26.62
2022-07-31T22:56:17.419Z,26.67
2022-07-31T22:58:44.435Z,26.65
2022-07-31T23:01:11.425Z,26.71
2022-07-31T23:03:38.278Z,26.62
2022-07-31T23:06:30.572Z,26.55
2022-07-31T23:08:55.001Z,26.49
2022-07-31T23:11:23.477Z,26.52
2022-07-31T23:13:51.662Z,26.58
2022-07-31T23:16:20.129Z,26.52
2022-07-31T23:18:47.217Z,26.48
2022-07-31T23:21:14.125Z,26.38
2022-07-31T23:23:41.172Z,26.30
2022-07-31T23:26:19.612Z,26.21
2022-07-31T23:28:48.017Z,26.20
2022-07-31T23:31:16.287Z,26.23
2022-07-31T23:33:44.003Z,26.23
2022-07-31T23:36:11.889Z,26.12
2022-07-31T23:38:39.288Z,26.12
2022-07-31T23:41:06.221Z,25.94
2022-07-31T23:43:33.091Z,25.99
2022-07-31T23:46:00.191Z,26.07
2022-07-31T23:48:29.288Z,25.95
2022-07-31T23:50:57.836Z,26.03
2022-07-31T23:53:24.709Z,25.91
2022-07-31T23:55:51.795Z,25.92
2022-07-31T23:58:18.723Z,25.66
